Time,TemperatureF,DewpointF,PressureIn,WindDirection,WindDirectionDegrees,WindSpeedMPH,WindSpeedGustMPH,Humidity,HourlyPrecipIn,Conditions,Clouds,dailyrainin,SoftwareType,DateUTC
2013-04-03 00:01:00,68.0,43.0,29.92,SW,225,0.0,0.0,41,0.00,,,0.00,,2013-04-03 07:01:00,
2013-04-03 00:11:00,68.0,43.0,29.92,SW,225,0.0,0.0,41,0.00,,,0.00,,2013-04-03 07:11:00,
2013-04-03 00:22:00,68.0,44.0,29.93,SW,225,0.0,0.0,42,0.00,,,0.00,,2013-04-03 07:22:00,
2013-04-03 00:31:00,67.0,43.0,29.92,SW,225,1.0,2.0,42,0.00,,,0.00,,2013-04-03 07:31:00,
2013-04-03 00:41:00,67.0,43.0,29.92,SW,225,1.0,2.0,42,0.00,,,0.00,,2013-04-03 07:41:00,
2013-04-03 00:53:00,65.0,43.0,29.92,SW,225,0.0,1.0,45,0.00,,,0.00,,2013-04-03 07:53:00,
2013-04-03 01:01:00,65.0,43.0,29.91,SW,225,0.0,0.0,45,0.00,,,0.00,,2013-04-03 08:01:00,
2013-04-03 01:11:00,65.0,43.0,29.91,SW,225,0.0,0.0,45,0.00,,,0.00,,2013-04-03 08:11:00,
2013-04-03 01:21:00,66.0,44.0,29.92,SW,225,0.0,0.0,45,0.00,,,0.00,,2013-04-03 08:21:00,
2013-04-03 01:31:00,65.0,43.0,29.92,SW,225,0.0,0.0,45,0.00,,,0.00,,2013-04-03 08:31:00,
2013-04-03 01:41:00,65.0,43.0,29.92,SW,225,0.0,0.0,45,0.00,,,0.00,,2013-04-03 08:41:00,
2013-04-03 01:52:00,66.0,43.0,29.92,SW,225,0.0,0.0,44,0.00,,,0.00,,2013-04-03 08:52:00,
2013-04-03 02:01:00,65.0,43.0,29.91,SW,225,0.0,0.0,45,0.00,,,0.00,,2013-04-03 09:01:00,
2013-04-03 02:11:00,65.0,43.0,29.91,SW,225,0.0,0.0,45,0.00,,,0.00,,2013-04-03 09:11:00,
2013-04-03 02:21:00,65.0,43.0,29.91,SW,225,0.0,0.0,44,0.00,,,0.00,,2013-04-03 09:21:00,
2013-04-03 02:32:00,65.0,43.0,29.91,SW,225,0.0,0.0,45,0.00,,,0.00,,2013-04-03 09:32:00,
2013-04-03 02:42:00,65.0,43.0,29.91,SW,225,0.0,0.0,45,0.00,,,0.00,,2013-04-03 09:42:00,
2013-04-03 02:53:00,63.0,43.0,29.91,SW,225,0.0,0.0,48,0.00,,,0.00,,2013-04-03 09:53:00,
2013-04-03 03:02:00,64.0,43.0,29.92,SW,225,0.0,0.0,47,0.00,,,0.00,,2013-04-03 10:02:00,
2013-04-03 03:12:00,64.0,43.0,29.92,SW,225,0.0,0.0,47,0.00,,,0.00,,2013-04-03 10:12:00,
2013-04-03 03:22:00,63.0,42.0,29.91,SW,225,0.0,1.0,47,0.00,,,0.00,,2013-04-03 10:22:00,
2013-04-03 03:32:00,63.0,42.0,29.92,SW,225,2.0,2.0,47,0.00,,,0.00,,2013-04-03 10:32:00,
2013-04-03 03:42:00,63.0,42.0,29.92,SW,225,2.0,2.0,47,0.00,,,0.00,,2013-04-03 10:42:00,
2013-04-03 03:52:00,63.0,42.0,29.91,SW,225,0.0,1.0,47,0.00,,,0.00,,2013-04-03 10:52:00,
2013-04-03 04:02:00,63.0,43.0,29.92,SW,225,0.0,0.0,48,0.00,,,0.00,,2013-04-03 11:02:00,
2013-04-03 04:12:00,63.0,43.0,29.92,SW,225,0.0,0.0,48,0.00,,,0.00,,2013-04-03 11:12:00,
2013-04-03 04:22:00,63.0,43.0,29.92,SW,225,0.0,0.0,48,0.00,,,0.00,,2013-04-03 11:22:00,
2013-04-03 04:32:00,62.0,43.0,29.92,SW,225,1.0,2.0,49,0.00,,,0.00,,2013-04-03 11:32:00,
2013-04-03 04:41:00,62.0,43.0,29.92,SW,225,1.0,2.0,49,0.00,,,0.00,,2013-04-03 11:41:00,
2013-04-03 04:52:00,62.0,43.0,29.93,SW,225,0.0,0.0,49,0.00,,,0.00,,2013-04-03 11:52:00,
2013-04-03 05:01:00,62.0,43.0,29.93,SW,225,0.0,0.0,50,0.00,,,0.00,,2013-04-03 12:01:00,
2013-04-03 05:11:00,62.0,43.0,29.93,SW,225,0.0,0.0,50,0.00,,,0.00,,2013-04-03 12:11:00,
2013-04-03 05:22:00,60.0,43.0,29.93,SW,225,0.0,2.0,54,0.00,,,0.00,,2013-04-03 12:22:00,
2013-04-03 05:31:00,59.0,43.0,29.93,SW,225,0.0,0.0,56,0.00,,,0.00,,2013-04-03 12:31:00,
2013-04-03 05:41:00,59.0,43.0,29.93,SW,225,0.0,0.0,56,0.00,,,0.00,,2013-04-03 12:41:00,
2013-04-03 05:52:00,60.0,44.0,29.93,SW,225,0.0,0.0,55,0.00,,,0.00,,2013-04-03 12:52:00,
2013-04-03 06:01:00,60.0,43.0,29.94,SW,225,0.0,0.0,54,0.00,,,0.00,,2013-04-03 13:01:00,
2013-04-03 06:12:00,60.0,43.0,29.94,SW,225,0.0,0.0,54,0.00,,,0.00,,2013-04-03 13:12:00,
2013-04-03 06:21:00,60.0,44.0,29.94,SW,225,0.0,0.0,55,0.00,,,0.00,,2013-04-03 13:21:00,
2013-04-03 06:31:00,60.0,43.0,29.94,SW,225,0.0,0.0,54,0.00,,,0.00,,2013-04-03 13:31:00,
2013-04-03 06:41:00,60.0,43.0,29.94,SW,225,0.0,0.0,54,0.00,,,0.00,,2013-04-03 13:41:00,
2013-04-03 06:52:00,59.0,43.0,29.95,SW,225,0.0,0.0,56,0.00,,,0.00,,2013-04-03 13:52:00,
2013-04-03 07:01:00,59.0,44.0,29.96,SW,225,0.0,0.0,57,0.00,,,0.00,,2013-04-03 14:01:00,
2013-04-03 07:11:00,59.0,44.0,29.96,SW,225,0.0,0.0,57,0.00,,,0.00,,2013-04-03 14:11:00,
2013-04-03 07:21:00,61.0,45.0,29.96,SW,225,0.0,0.0,55,0.00,,,0.00,,2013-04-03 14:21:00,
2013-04-03 07:31:00,61.0,44.0,29.97,SW,225,0.0,0.0,53,0.00,,,0.00,,2013-04-03 14:31:00,
2013-04-03 07:42:00,61.0,44.0,29.97,SW,225,0.0,0.0,53,0.00,,,0.00,,2013-04-03 14:42:00,
2013-04-03 07:51:00,62.0,44.0,29.98,SW,225,0.0,0.0,51,0.00,,,0.00,,2013-04-03 14:51:00,
2013-04-03 08:01:00,64.0,44.0,29.98,SW,225,0.0,0.0,49,0.00,,,0.00,,2013-04-03 15:01:00,
2013-04-03 08:11:00,64.0,44.0,29.98,SW,225,0.0,0.0,49,0.00,,,0.00,,2013-04-03 15:11:00,
2013-04-03 08:22:00,65.0,45.0,29.98,SW,225,0.0,0.0,48,0.00,,,0.00,,2013-04-03 15:22:00,
2013-04-03 08:32:00,67.0,44.0,29.99,SW,225,0.0,1.0,43,0.00,,,0.00,,2013-04-03 15:32:00,
2013-04-03 08:42:00,67.0,44.0,29.99,SW,225,0.0,1.0,43,0.00,,,0.00,,2013-04-03 15:42:00,
2013-04-03 08:53:00,70.0,43.0,29.99,SW,225,0.0,1.0,38,0.00,,,0.00,,2013-04-03 15:53:00,
2013-04-03 09:02:00,71.0,41.0,29.99,South,180,2.0,3.0,34,0.00,,,0.00,,2013-04-03 16:02:00,
2013-04-03 09:12:00,71.0,41.0,29.99,South,180,2.0,3.0,34,0.00,,,0.00,,2013-04-03 16:12:00,
2013-04-03 09:22:00,73.0,41.0,29.99,South,180,1.0,2.0,32,0.00,,,0.00,,2013-04-03 16:22:00,
2013-04-03 09:32:00,74.0,41.0,29.99,South,180,2.0,3.0,31,0.00,,,0.00,,2013-04-03 16:32:00,
2013-04-03 09:42:00,74.0,41.0,29.99,South,180,2.0,3.0,31,0.00,,,0.00,,2013-04-03 16:42:00,
2013-04-03 09:52:00,76.0,43.0,29.99,South,180,0.0,2.0,31,0.00,,,0.00,,2013-04-03 16:52:00,
2013-04-03 10:02:00,78.0,44.0,29.98,ESE,113,2.0,3.0,30,0.00,,,0.00,,2013-04-03 17:02:00,
2013-04-03 10:12:00,78.0,44.0,29.98,ESE,113,2.0,3.0,30,0.00,,,0.00,,2013-04-03 17:12:00,
2013-04-03 10:22:00,80.0,44.0,29.99,North,0,2.0,3.0,28,0.00,,,0.00,,2013-04-03 17:22:00,
2013-04-03 10:32:00,81.0,42.0,29.99,North,0,3.0,5.0,25,0.00,,,0.00,,2013-04-03 17:32:00,
2013-04-03 10:45:00,81.0,42.0,29.99,North,0,3.0,5.0,25,0.00,,,0.00,,2013-04-03 17:45:00,
2013-04-03 10:53:00,83.0,42.0,29.99,North,0,3.0,5.0,24,0.00,,,0.00,,2013-04-03 17:53:00,
2013-04-03 11:02:00,83.0,41.0,29.99,North,0,5.0,7.0,23,0.00,,,0.00,,2013-04-03 18:02:00,
2013-04-03 11:12:00,83.0,41.0,29.99,North,0,5.0,7.0,23,0.00,,,0.00,,2013-04-03 18:12:00,
2013-04-03 11:21:00,84.0,40.0,29.98,NNE,23,3.0,7.0,21,0.00,,,0.00,,2013-04-03 18:21:00,
2013-04-03 11:32:00,85.0,41.0,29.99,NNW,338,5.0,7.0,21,0.00,,,0.00,,2013-04-03 18:32:00,
2013-04-03 11:42:00,85.0,41.0,29.99,NNW,338,5.0,7.0,21,0.00,,,0.00,,2013-04-03 18:42:00,
2013-04-03 11:52:00,85.0,41.0,29.98,NNE,23,2.0,5.0,21,0.00,,,0.00,,2013-04-03 18:52:00,
2013-04-03 12:01:00,86.0,41.0,29.98,North,0,2.0,5.0,21,0.00,,,0.00,,2013-04-03 19:01:00,
2013-04-03 12:21:00,86.0,40.0,29.98,NW,315,3.0,5.0,20,0.00,,,0.00,,2013-04-03 19:21:00,
2013-04-03 12:31:00,87.0,40.0,29.97,North,0,2.0,3.0,19,0.00,,,0.00,,2013-04-03 19:31:00,
2013-04-03 12:42:00,87.0,40.0,29.97,North,0,2.0,3.0,19,0.00,,,0.00,,2013-04-03 19:42:00,
2013-04-03 12:52:00,87.0,41.0,29.97,NNW,338,1.0,2.0,20,0.00,,,0.00,,2013-04-03 19:52:00,
2013-04-03 13:01:00,88.0,41.0,29.96,NNE,23,3.0,6.0,19,0.00,,,0.00,,2013-04-03 20:01:00,
2013-04-03 13:22:00,89.0,43.0,29.97,WNW,293,3.0,5.0,20,0.00,,,0.00,,2013-04-03 20:22:00,
2013-04-03 13:32:00,90.0,43.0,29.96,WNW,293,7.0,12.0,20,0.00,,,0.00,,2013-04-03 20:32:00,
2013-04-03 13:52:00,89.0,41.0,29.95,NNW,338,2.0,3.0,19,0.00,,,0.00,,2013-04-03 20:52:00,
2013-04-03 14:01:00,90.0,42.0,29.94,WNW,293,2.0,3.0,19,0.00,,,0.00,,2013-04-03 21:01:00,
2013-04-03 14:22:00,91.0,43.0,29.94,North,0,6.0,7.0,19,0.00,,,0.00,,2013-04-03 21:22:00,
2013-04-03 14:32:00,90.0,42.0,29.93,North,0,3.0,5.0,19,0.00,,,0.00,,2013-04-03 21:32:00,
2013-04-03 14:52:00,90.0,42.0,29.93,NNW,338,5.0,7.0,19,0.00,,,0.00,,2013-04-03 21:52:00,
2013-04-03 15:02:00,90.0,41.0,29.92,North,0,3.0,6.0,18,0.00,,,0.00,,2013-04-03 22:02:00,
2013-04-03 15:22:00,90.0,42.0,29.91,North,0,3.0,5.0,19,0.00,,,0.00,,2013-04-03 22:22:00,
2013-04-03 15:32:00,91.0,42.0,29.91,NNW,338,3.0,6.0,18,0.00,,,0.00,,2013-04-03 22:32:00,
2013-04-03 15:52:00,91.0,42.0,29.90,NNW,338,3.0,6.0,18,0.00,,,0.00,,2013-04-03 22:52:00,
2013-04-03 16:01:00,91.0,42.0,29.90,WNW,293,3.0,8.0,18,0.00,,,0.00,,2013-04-03 23:01:00,
2013-04-03 16:22:00,91.0,42.0,29.90,NW,315,6.0,12.0,18,0.00,,,0.00,,2013-04-03 23:22:00,
2013-04-03 16:32:00,91.0,42.0,29.90,West,270,5.0,8.0,18,0.00,,,0.00,,2013-04-03 23:32:00,
2013-04-03 16:54:00,91.0,40.0,29.90,NNW,338,1.0,3.0,17,0.00,,,0.00,,2013-04-03 23:54:00,
2013-04-03 17:01:00,90.0,39.0,29.89,North,0,3.0,7.0,17,0.00,,,0.00,,2013-04-04 00:01:00,
2013-04-03 17:22:00,90.0,39.0,29.90,NNW,338,2.0,3.0,17,0.00,,,0.00,,2013-04-04 00:22:00,
2013-04-03 17:32:00,90.0,39.0,29.89,North,0,2.0,3.0,17,0.00,,,0.00,,2013-04-04 00:32:00,
2013-04-03 17:52:00,89.0,46.0,29.89,SW,225,3.0,6.0,23,0.00,,,0.00,,2013-04-04 00:52:00,
2013-04-03 18:02:00,88.0,47.0,29.90,WSW,248,5.0,7.0,24,0.00,,,0.00,,2013-04-04 01:02:00,
2013-04-03 18:22:00,87.0,47.0,29.90,WSW,248,3.0,5.0,25,0.00,,,0.00,,2013-04-04 01:22:00,
2013-04-03 18:31:00,86.0,47.0,29.90,SW,225,3.0,6.0,26,0.00,,,0.00,,2013-04-04 01:31:00,
2013-04-03 18:52:00,86.0,47.0,29.90,SW,225,2.0,3.0,26,0.00,,,0.00,,2013-04-04 01:52:00,
2013-04-03 19:02:00,85.0,46.0,29.90,SW,225,2.0,3.0,26,0.00,,,0.00,,2013-04-04 02:02:00,
2013-04-03 19:21:00,84.0,46.0,29.89,SW,225,2.0,3.0,27,0.00,,,0.00,,2013-04-04 02:21:00,
2013-04-03 19:31:00,83.0,46.0,29.90,SW,225,2.0,3.0,27,0.00,,,0.00,,2013-04-04 02:31:00,
2013-04-03 19:41:00,83.0,46.0,29.90,SW,225,2.0,3.0,27,0.00,,,0.00,,2013-04-04 02:41:00,
2013-04-03 19:52:00,83.0,46.0,29.90,SW,225,2.0,3.0,27,0.00,,,0.00,,2013-04-04 02:52:00,
2013-04-03 20:01:00,81.0,44.0,29.90,SW,225,1.0,2.0,27,0.00,,,0.00,,2013-04-04 03:01:00,
2013-04-03 20:11:00,81.0,44.0,29.90,SW,225,1.0,2.0,27,0.00,,,0.00,,2013-04-04 03:11:00,
2013-04-03 20:22:00,80.0,45.0,29.90,SW,225,0.0,1.0,29,0.00,,,0.00,,2013-04-04 03:22:00,
2013-04-03 20:32:00,79.0,44.0,29.91,SW,225,2.0,3.0,29,0.00,,,0.00,,2013-04-04 03:32:00,
2013-04-03 20:43:00,79.0,44.0,29.91,SW,225,2.0,3.0,29,0.00,,,0.00,,2013-04-04 03:43:00,
2013-04-03 20:53:00,78.0,46.0,29.91,SW,225,1.0,2.0,32,0.00,,,0.00,,2013-04-04 03:53:00,
2013-04-03 21:02:00,77.0,46.0,29.92,SW,225,0.0,1.0,33,0.00,,,0.00,,2013-04-04 04:02:00,
2013-04-03 21:12:00,77.0,46.0,29.92,SW,225,0.0,1.0,33,0.00,,,0.00,,2013-04-04 04:12:00,
2013-04-03 21:22:00,76.0,46.0,29.92,SW,225,1.0,2.0,34,0.00,,,0.00,,2013-04-04 04:22:00,
2013-04-03 21:32:00,75.0,45.0,29.92,SW,225,0.0,0.0,35,0.00,,,0.00,,2013-04-04 04:32:00,
2013-04-03 21:42:00,75.0,45.0,29.92,SW,225,0.0,0.0,35,0.00,,,0.00,,2013-04-04 04:42:00,
2013-04-03 21:52:00,75.0,46.0,29.92,SW,225,0.0,0.0,36,0.00,,,0.00,,2013-04-04 04:52:00,
2013-04-03 22:02:00,74.0,47.0,29.93,SW,225,0.0,0.0,38,0.00,,,0.00,,2013-04-04 05:02:00,
2013-04-03 22:12:00,74.0,47.0,29.93,SW,225,0.0,0.0,38,0.00,,,0.00,,2013-04-04 05:12:00,
2013-04-03 22:22:00,74.0,47.0,29.93,SW,225,0.0,0.0,38,0.00,,,0.00,,2013-04-04 05:22:00,
2013-04-03 22:32:00,73.0,47.0,29.93,SW,225,0.0,0.0,39,0.00,,,0.00,,2013-04-04 05:32:00,
2013-04-03 22:42:00,73.0,47.0,29.93,SW,225,0.0,0.0,39,0.00,,,0.00,,2013-04-04 05:42:00,
2013-04-03 22:52:00,73.0,47.0,29.93,SW,225,0.0,0.0,40,0.00,,,0.00,,2013-04-04 05:52:00,
2013-04-03 23:02:00,73.0,48.0,29.94,SW,225,0.0,0.0,41,0.00,,,0.00,,2013-04-04 06:02:00,
2013-04-03 23:21:00,72.0,47.0,29.93,SW,225,0.0,0.0,41,0.00,,,0.00,,2013-04-04 06:21:00,
2013-04-03 23:32:00,72.0,47.0,29.93,SW,225,0.0,0.0,41,0.00,,,0.00,,2013-04-04 06:32:00,
2013-04-03 23:52:00,71.0,47.0,29.93,SW,225,0.0,0.0,42,0.00,,,0.00,,2013-04-04 06:52:00,